ウィニペグ の空港の天気 - METARとTAF

ウィニペグ国際空港 ( CYWG / YWG ) - カナダ マニトバ州ウィニペグ
飛行場実況気象(Metar)
観測時間04/26 06:00 CDT (04/26 11:00 UTC)
風向・風速北北西 5m/s
視程10km以上
天気現象
なし
気温0℃
湿度80%
気圧1016.4hPa
METARCYWG 261100Z 33009KT 15SM SKC M00/M03 A2999 RMK SLP164
過去の天気等 Google飛行場航空写真 Wunderground天気予報

過去48時間のMETAR

飛行場予報(TAF)
発表時間: 4/26 00:38 CDT (4/26 05:38 UTC)
予報対象時間: 26日1時 CDT ~ 27日1時 CDT
風向・風速北 6m/s
視程10km以上
少しの雲 雲底高度 3,050m
全天の4割程度の雲 雲底高度 7,620m
26日14時 CDT ~ 26日16時 CDT に徐々に
風向・風速西北西 5m/s
26日18時 CDT から
風向・風速南南西 5m/s
視程10km以上
全天の8割程度の雲 雲底高度 2,440m
26日22時 CDT ~ 26日24時 CDT に徐々に
風向・風速北北西 6m/s
TAF CYWG 260538Z 2606/2706 35012KT P6SM FEW100 SCT250
BECMG 2619/2621 30010KT
FM262300 20010KT P6SM BKN080
BECMG 2703/2705 34012KT RMK NXT FCST BY 261200Z